ADDS METAR Data INFO
IDs: Format: Raw Decoded Include TAF

Data at: 0154 UTC 25 Feb 2018

KMIA 250053Z 11013KT 10SM SCT021 BKN030 24/21 A3016 RMK AO2 SLP213 T02390206